Time;durP1;ratioP1;P1;durP2;ratioP2;P2;SDS_P1;SDS_P2;PMS_P1;PMS_P2;Temp;Humidity;BMP_temperature;BMP_pressure;BME280_temperature;BME280_humidity;BME280_pressure;Samples;Min_cycle;Max_cycle;Signal;HPM_P1;HPM_P2
2022/12/23 00:08:59;;;;;;;1999.90;999.90;;;9.50;99.90;;;;;;6711455;88;20569;-74
2022/12/23 00:18:59;;;;;;;1999.90;999.90;;;9.50;99.90;;;;;;6700110;88;20645;-73
2022/12/23 00:29:00;;;;;;;1999.90;999.90;;;9.40;99.90;;;;;;6713867;88;20230;-74
2022/12/23 00:59:39;;;;;;;1999.90;999.90;;;9.40;99.90;;;;;;6716365;88;20283;-76
2022/12/23 01:09:39;;;;;;;1999.90;999.90;;;9.60;99.90;;;;;;6718591;88;20686;-76
2022/12/23 01:19:40;;;;;;;1999.90;999.90;;;9.70;99.90;;;;;;6718469;88;20656;-76
2022/12/23 01:29:40;;;;;;;1999.90;999.90;;;9.60;99.90;;;;;;6718405;88;20205;-76
2022/12/23 01:39:41;;;;;;;1999.90;999.90;;;9.80;99.90;;;;;;6714829;88;20237;-75
2022/12/23 01:49:42;;;;;;;1999.90;999.90;;;10.00;99.90;;;;;;6718229;88;20806;-76
2022/12/23 02:10:04;;;;;;;1999.90;999.90;;;10.20;99.90;;;;;;6716877;88;20666;-77
2022/12/23 02:20:34;;;;;;;1999.90;999.90;;;10.20;99.90;;;;;;6718670;88;20198;-75
2022/12/23 02:31:09;;;;;;;1999.90;999.90;;;10.20;99.90;;;;;;6723572;88;20190;-75
2022/12/23 02:41:28;;;;;;;1999.90;999.90;;;10.30;99.90;;;;;;6727377;88;20246;-75
2022/12/23 02:51:34;;;;;;;1999.90;999.90;;;10.30;99.90;;;;;;6724118;88;20169;-77
2022/12/23 03:01:38;;;;;;;1999.90;999.90;;;10.40;99.90;;;;;;6723058;88;20713;-77
2022/12/23 03:11:38;;;;;;;1999.90;999.90;;;10.40;99.90;;;;;;6723760;88;20191;-77
2022/12/23 03:21:48;;;;;;;1999.90;999.90;;;10.50;99.90;;;;;;6723631;88;20245;-75
2022/12/23 03:31:50;;;;;;;1999.90;999.90;;;10.60;99.90;;;;;;6723366;88;20635;-75
2022/12/23 03:42:16;;;;;;;1999.90;999.90;;;10.40;99.90;;;;;;6719907;88;20212;-75
2022/12/23 03:52:30;;;;;;;1999.90;999.90;;;10.40;99.90;;;;;;6720677;88;20636;-75
2022/12/23 04:02:44;;;;;;;1999.90;999.90;;;10.50;99.90;;;;;;6721909;88;20197;-78
2022/12/23 04:12:44;;;;;;;1999.90;999.90;;;10.40;99.90;;;;;;6716141;88;20186;-76
2022/12/23 04:22:45;;;;;;;1999.90;999.90;;;10.40;99.90;;;;;;6719073;88;20213;-78
2022/12/23 04:32:46;;;;;;;1999.90;999.90;;;10.20;99.90;;;;;;6717839;88;20227;-78
2022/12/23 04:42:46;;;;;;;1999.90;999.90;;;10.10;99.90;;;;;;6718506;88;20193;-77
2022/12/23 04:52:47;;;;;;;1999.90;999.90;;;10.10;99.90;;;;;;6718530;88;20618;-77
2022/12/23 05:02:47;;;;;;;1999.90;999.90;;;10.10;99.90;;;;;;6718658;88;20606;-77
2022/12/23 05:12:48;;;;;;;1999.90;999.90;;;10.20;99.90;;;;;;6718548;88;20219;-77
2022/12/23 05:22:48;;;;;;;1999.90;999.90;;;10.20;99.90;;;;;;6718232;88;20198;-77
2022/12/23 05:32:53;;;;;;;1999.90;999.90;;;10.30;99.90;;;;;;6718881;88;20370;-77
2022/12/23 05:42:53;;;;;;;1999.90;999.90;;;10.20;99.90;;;;;;6718312;88;20259;-77
2022/12/23 05:52:57;;;;;;;1999.90;999.90;;;10.20;99.90;;;;;;6719580;88;20347;-77
2022/12/23 06:02:57;;;;;;;1999.90;999.90;;;10.20;99.90;;;;;;6713554;88;20218;-77
2022/12/23 06:12:58;;;;;;;1999.90;999.90;;;10.30;99.90;;;;;;6718080;88;20324;-77
2022/12/23 06:22:58;;;;;;;1999.90;999.90;;;10.30;99.90;;;;;;6718191;88;20198;-77
2022/12/23 06:32:59;;;;;;;1999.90;999.90;;;10.30;99.90;;;;;;6717515;88;20198;-77
2022/12/23 06:42:59;;;;;;;1999.90;999.90;;;10.30;99.90;;;;;;6714520;88;20214;-76
2022/12/23 06:53:00;;;;;;;1999.90;999.90;;;10.00;99.90;;;;;;6713372;88;20186;-76
2022/12/23 07:03:00;;;;;;;1999.90;999.90;;;10.00;99.90;;;;;;6713509;88;20190;-76
2022/12/23 07:13:01;;;;;;;1999.90;999.90;;;9.80;99.90;;;;;;6714643;88;20207;-77
2022/12/23 07:23:02;;;;;;;1999.90;999.90;;;9.90;99.90;;;;;;6712701;88;20202;-76
2022/12/23 07:33:02;;;;;;;1999.90;999.90;;;9.90;99.90;;;;;;6713759;88;20231;-76
2022/12/23 07:43:03;;;;;;;1999.90;999.90;;;10.00;99.90;;;;;;6715894;88;20435;-77
2022/12/23 07:53:03;;;;;;;1999.90;999.90;;;9.90;99.90;;;;;;6715392;88;20268;-77
2022/12/23 08:03:04;;;;;;;1999.90;999.90;;;9.60;99.90;;;;;;6715459;88;20194;-76
2022/12/23 08:13:04;;;;;;;1999.90;999.90;;;9.50;99.90;;;;;;6714943;88;20182;-77
2022/12/23 08:23:05;;;;;;;1999.90;999.90;;;9.40;99.90;;;;;;6714528;88;20197;-77
2022/12/23 08:33:05;;;;;;;1999.90;999.90;;;9.30;99.90;;;;;;6714332;88;20327;-77
2022/12/23 08:43:06;;;;;;;1999.90;999.90;;;9.40;99.90;;;;;;6714778;88;20192;-77
2022/12/23 08:53:07;;;;;;;1999.90;999.90;;;9.50;99.90;;;;;;6714626;88;20232;-76
2022/12/23 09:03:08;;;;;;;1999.90;999.90;;;9.60;99.90;;;;;;6717505;88;20682;-76
2022/12/23 09:13:12;;;;;;;1999.90;999.90;;;9.70;99.90;;;;;;6711590;88;20212;-76
2022/12/23 09:23:13;;;;;;;1999.90;999.90;;;9.80;99.90;;;;;;6713406;88;20206;-77
2022/12/23 09:33:14;;;;;;;1999.90;999.90;;;9.80;99.90;;;;;;6713277;88;20209;-77
2022/12/23 09:43:42;;;;;;;1999.90;999.90;;;9.70;99.90;;;;;;6713895;88;20201;-77
2022/12/23 09:53:53;;;;;;;1999.90;999.90;;;9.60;99.90;;;;;;6714584;88;20811;-77
2022/12/23 10:04:12;;;;;;;1999.90;999.90;;;9.50;99.90;;;;;;6712121;88;20252;-76
2022/12/23 10:14:39;;;;;;;1999.90;999.90;;;9.50;99.90;;;;;;6713880;88;20372;-76
2022/12/23 10:24:43;;;;;;;1999.90;999.90;;;9.50;99.90;;;;;;6712820;88;20320;-77
2022/12/23 10:35:11;;;;;;;1999.90;999.90;;;9.60;99.90;;;;;;6713318;88;20610;-76
2022/12/23 10:45:25;;;;;;;1999.90;999.90;;;9.70;99.90;;;;;;6713568;88;20214;-77
2022/12/23 10:55:30;;;;;;;1999.90;999.90;;;9.80;99.90;;;;;;6716068;88;20911;-76
2022/12/23 11:05:33;;;;;;;1999.90;999.90;;;10.00;99.90;;;;;;6716832;88;20328;-76
2022/12/23 11:15:37;;;;;;;1999.90;999.90;;;9.90;99.90;;;;;;6716885;88;20957;-76
2022/12/23 11:25:39;;;;;;;1999.90;999.90;;;9.70;99.90;;;;;;6715433;88;20214;-76
2022/12/23 11:35:40;;;;;;;1999.90;999.90;;;9.70;99.90;;;;;;6712967;88;20240;-76
2022/12/23 11:45:40;;;;;;;1999.90;999.90;;;9.50;99.90;;;;;;6716051;88;20685;-76
2022/12/23 11:56:06;;;;;;;1999.90;999.90;;;9.50;99.90;;;;;;6716395;88;20222;-75
2022/12/23 12:06:12;;;;;;;1999.90;999.90;;;9.30;99.90;;;;;;6712492;88;20658;-76
2022/12/23 12:16:12;;;;;;;1999.90;999.90;;;9.30;99.90;;;;;;6716520;88;20355;-76
2022/12/23 12:26:34;;;;;;;1999.90;999.90;;;9.20;99.90;;;;;;6713980;88;20435;-76
2022/12/23 12:36:46;;;;;;;1999.90;999.90;;;9.20;99.90;;;;;;6713422;88;20189;-76
2022/12/23 12:46:53;;;;;;;1999.90;999.90;;;9.30;99.90;;;;;;6717298;88;20466;-76
2022/12/23 12:56:55;;;;;;;1999.90;999.90;;;9.20;99.90;;;;;;6714508;88;20305;-76
2022/12/23 13:07:15;;;;;;;1999.90;999.90;;;9.30;99.90;;;;;;6717443;88;20629;-76
2022/12/23 13:17:37;;;;;;;1999.90;999.90;;;9.40;99.90;;;;;;6720922;77;20218;-74
2022/12/23 13:27:57;;;;;;;1999.90;999.90;;;9.40;99.90;;;;;;6718214;88;20716;-76
2022/12/23 13:38:22;;;;;;;1999.90;999.90;;;9.50;99.90;;;;;;6724610;88;20304;-75
2022/12/23 13:48:44;;;;;;;1999.90;999.90;;;9.60;99.90;;;;;;6721433;88;20193;-76
2022/12/23 13:58:48;;;;;;;1999.90;999.90;;;9.70;99.90;;;;;;6719536;88;20244;-75
2022/12/23 14:08:51;;;;;;;1999.90;999.90;;;9.70;99.90;;;;;;6718249;88;20197;-76
2022/12/23 14:19:04;;;;;;;1999.90;999.90;;;9.80;99.90;;;;;;6718188;88;20720;-76
2022/12/23 14:29:41;;;;;;;1999.90;999.90;;;9.80;99.90;;;;;;6720185;88;20250;-75
2022/12/23 14:39:42;;;;;;;1999.90;999.90;;;9.90;99.90;;;;;;6718923;88;21052;-76
2022/12/23 14:49:43;;;;;;;1999.90;999.90;;;10.00;99.90;;;;;;6718707;88;20194;-76
2022/12/23 15:00:08;;;;;;;1999.90;999.90;;;10.20;99.90;;;;;;6719644;88;20543;-76
2022/12/23 15:10:16;;;;;;;1999.90;999.90;;;10.30;99.90;;;;;;6720704;88;20309;-76
2022/12/23 15:20:22;;;;;;;1999.90;999.90;;;10.40;99.90;;;;;;6731791;88;20296;-75
2022/12/23 15:30:24;;;;;;;1999.90;999.90;;;10.60;99.90;;;;;;6718256;88;20190;-75
2022/12/23 15:40:32;;;;;;;1999.90;999.90;;;11.00;99.90;;;;;;6721742;88;20340;-76
2022/12/23 15:50:39;;;;;;;1999.90;999.90;;;11.10;99.90;;;;;;6721718;88;20186;-75
2022/12/23 16:00:51;;;;;;;1999.90;999.90;;;11.20;99.90;;;;;;6721570;88;20251;-76
2022/12/23 16:11:23;;;;;;;1999.90;999.90;;;11.40;99.90;;;;;;6720326;88;20257;-76
2022/12/23 16:21:29;;;;;;;1999.90;999.90;;;11.40;99.90;;;;;;6723234;88;20280;-77
2022/12/23 16:31:30;;;;;;;1999.90;999.90;;;11.90;99.90;;;;;;6722552;88;20257;-76
2022/12/23 16:41:30;;;;;;;1999.90;999.90;;;12.00;99.90;;;;;;6723437;88;20654;-76
2022/12/23 16:51:32;;;;;;;1999.90;999.90;;;11.90;99.90;;;;;;6722784;88;20207;-76
2022/12/23 17:01:37;;;;;;;1999.90;999.90;;;12.30;99.90;;;;;;6722695;88;20185;-76
2022/12/23 17:11:42;;;;;;;1999.90;999.90;;;12.30;99.90;;;;;;6725568;88;20190;-75
2022/12/23 17:21:44;;;;;;;1999.90;999.90;;;12.30;99.90;;;;;;6726756;88;20617;-74
2022/12/23 17:31:46;;;;;;;1999.90;999.90;;;12.30;99.90;;;;;;6729194;88;20275;-74
2022/12/23 17:41:47;;;;;;;1999.90;999.90;;;12.30;99.90;;;;;;6726156;88;20189;-73
2022/12/23 17:51:48;;;;;;;1999.90;999.90;;;12.30;99.90;;;;;;6725083;88;20213;-74
2022/12/23 18:01:49;;;;;;;1999.90;999.90;;;12.10;99.90;;;;;;6721449;88;20225;-75
2022/12/23 18:11:49;;;;;;;1999.90;999.90;;;12.40;99.90;;;;;;6721573;88;20181;-75
2022/12/23 18:21:50;;;;;;;1999.90;999.90;;;12.40;99.90;;;;;;6720662;88;20285;-77
2022/12/23 18:31:51;;;;;;;1999.90;999.90;;;12.30;99.90;;;;;;6718719;88;20181;-76
2022/12/23 18:41:52;;;;;;;1999.90;999.90;;;12.40;99.90;;;;;;6719239;88;20198;-75
2022/12/23 18:51:53;;;;;;;1999.90;999.90;;;12.40;99.90;;;;;;6718825;88;20206;-76
2022/12/23 19:01:54;;;;;;;1999.90;999.90;;;12.50;99.90;;;;;;6718947;88;20248;-72
2022/12/23 19:11:54;;;;;;;1999.90;999.90;;;12.40;99.90;;;;;;6722928;88;20219;-76
2022/12/23 19:21:55;;;;;;;1999.90;999.90;;;12.40;99.90;;;;;;6728261;77;20202;-77
2022/12/23 19:31:55;;;;;;;1999.90;999.90;;;12.60;99.90;;;;;;6720370;88;20535;-77
2022/12/23 19:41:56;;;;;;;1999.90;999.90;;;12.30;99.90;;;;;;6720163;88;20287;-78
2022/12/23 19:51:56;;;;;;;1999.90;999.90;;;12.30;99.90;;;;;;6720512;88;20255;-77
2022/12/23 20:01:57;;;;;;;1999.90;999.90;;;12.40;99.90;;;;;;6720748;88;20193;-78
2022/12/23 20:11:57;;;;;;;1999.90;999.90;;;12.60;99.90;;;;;;6719742;88;20206;-78
2022/12/23 20:21:58;;;;;;;1999.90;999.90;;;12.50;99.90;;;;;;6726693;88;20668;-77
2022/12/23 20:31:58;;;;;;;1999.90;999.90;;;12.60;99.90;;;;;;6733101;88;20197;-77
2022/12/23 20:41:59;;;;;;;1999.90;999.90;;;12.30;99.90;;;;;;6736452;88;20218;-77
2022/12/23 20:52:00;;;;;;;1999.90;999.90;;;12.30;99.90;;;;;;6736770;88;20606;-77
2022/12/23 21:02:00;;;;;;;1999.90;999.90;;;12.30;99.90;;;;;;6736604;88;20194;-77
2022/12/23 21:12:01;;;;;;;1999.90;999.90;;;12.20;99.90;;;;;;6736752;88;20679;-77
2022/12/23 21:22:02;;;;;;;1999.90;999.90;;;12.20;99.90;;;;;;6736376;88;20208;-77
2022/12/23 21:32:03;;;;;;;1999.90;999.90;;;12.30;99.90;;;;;;6736127;88;20202;-77
2022/12/23 21:42:05;;;;;;;1999.90;999.90;;;12.20;99.90;;;;;;6735902;88;20193;-77
2022/12/23 21:52:05;;;;;;;1999.90;999.90;;;12.20;99.90;;;;;;6736868;88;20201;-77
2022/12/23 22:02:06;;;;;;;1999.90;999.90;;;12.20;99.90;;;;;;6735847;88;20229;-77
2022/12/23 22:12:06;;;;;;;1999.90;999.90;;;12.20;99.90;;;;;;6736130;88;20320;-77
2022/12/23 22:22:07;;;;;;;1999.90;999.90;;;12.20;99.90;;;;;;6736394;88;20333;-77
2022/12/23 22:32:07;;;;;;;1999.90;999.90;;;12.20;99.90;;;;;;6732975;88;20624;-77
2022/12/23 22:42:07;;;;;;;1999.90;999.90;;;12.10;99.90;;;;;;6727518;88;20255;-77
2022/12/23 22:52:08;;;;;;;1999.90;999.90;;;12.00;99.90;;;;;;6738275;88;20679;-76
2022/12/23 23:02:08;;;;;;;1999.90;999.90;;;12.00;99.90;;;;;;6738081;88;20654;-78
2022/12/23 23:12:09;;;;;;;1999.90;999.90;;;12.00;99.90;;;;;;6738862;88;20181;-77
2022/12/23 23:22:10;;;;;;;1999.90;999.90;;;11.90;99.90;;;;;;6734800;88;20233;-77
2022/12/23 23:32:10;;;;;;;1999.90;999.90;;;11.80;99.90;;;;;;6739045;88;20220;-77
2022/12/23 23:42:11;;;;;;;1999.90;999.90;;;11.70;99.90;;;;;;6739196;88;20252;-77
2022/12/23 23:52:11;;;;;;;1999.90;999.90;;;11.80;99.90;;;;;;6738474;88;20188;-77
